Terminal Aerodrome Forecast
Issued by NWS Blacksburg, VA

Home | Current Version | Previous Version | Text Only | Print | Product List | Glossary On
Versions: 1 2 3 4 5 6 7 8 9 10 11 12 13 14 15 16 17 18 19 20 21 22 23 24 25 26 27 28 29 30 31 32 33 34
211
FTUS41 KRNK 022333
TAFLYH
TAF
KLYH 022333Z 0300/0324 29005KT P6SM SKC
     FM030100 29006KT P6SM SKC
     FM030700 00000KT P6SM FEW250
     FM031400 30006KT P6SM FEW250=

USA.gov is the U.S. government's official web portal to all federal, state and local government web resources and services.